createdAt,value
2018-08-31T00:05:50.872Z,10.90
2018-08-31T00:09:29.029Z,9.97
2018-08-31T00:12:19.497Z,10.10
2018-08-31T00:14:48.717Z,9.87
2018-08-31T00:17:17.606Z,10.57
2018-08-31T00:19:46.085Z,9.90
2018-08-31T00:40:50.332Z,10.10
2018-08-31T00:43:30.366Z,9.90
2018-08-31T00:45:59.318Z,9.23
2018-08-31T00:48:28.480Z,10.30
2018-08-31T00:50:57.029Z,10.00
2018-08-31T00:53:26.209Z,10.50
2018-08-31T00:55:54.611Z,10.53
2018-08-31T01:15:44.739Z,11.23
2018-08-31T01:18:13.233Z,10.30
2018-08-31T01:20:41.945Z,10.10
2018-08-31T01:23:10.749Z,10.57
2018-08-31T01:25:39.280Z,10.80
2018-08-31T01:28:07.945Z,10.53
2018-08-31T01:30:36.705Z,11.03
2018-08-31T01:33:05.453Z,10.80
2018-08-31T01:35:34.149Z,10.97
2018-08-31T01:38:02.870Z,10.33
2018-08-31T01:40:31.357Z,10.67
2018-08-31T01:42:59.847Z,10.53
2018-08-31T01:45:29.004Z,11.30
2018-08-31T01:47:58.054Z,10.40
2018-08-31T01:50:26.561Z,10.93
2018-08-31T01:52:55.137Z,10.93
2018-08-31T01:55:30.590Z,10.27
2018-08-31T01:58:00.109Z,11.43
2018-08-31T02:00:28.827Z,12.67
2018-08-31T02:02:57.331Z,12.17
2018-08-31T02:05:26.141Z,11.77
2018-08-31T02:07:54.613Z,12.57
2018-08-31T02:10:23.033Z,12.93
2018-08-31T02:12:52.623Z,12.07
2018-08-31T02:15:21.833Z,11.97
2018-08-31T02:17:50.328Z,12.90
2018-08-31T02:20:18.826Z,12.40
2018-08-31T02:22:47.816Z,12.43
2018-08-31T02:25:16.973Z,12.10
2018-08-31T02:27:46.412Z,12.97
2018-08-31T02:30:15.477Z,12.43
2018-08-31T02:32:45.331Z,12.70
2018-08-31T02:52:35.861Z,11.67
2018-08-31T02:55:04.535Z,11.73
2018-08-31T02:57:32.993Z,11.70
2018-08-31T03:00:03.248Z,11.83
2018-08-31T03:02:32.017Z,12.47
2018-08-31T03:05:00.545Z,12.20
2018-08-31T03:24:50.475Z,13.10
2018-08-31T03:27:18.922Z,12.60
2018-08-31T03:29:47.470Z,12.53
2018-08-31T03:32:16.247Z,12.60
2018-08-31T03:34:44.690Z,12.13
2018-08-31T03:37:14.178Z,12.20
2018-08-31T03:39:43.618Z,11.43
2018-08-31T03:59:33.719Z,11.97
2018-08-31T04:02:02.990Z,12.57
2018-08-31T04:04:32.077Z,12.93
2018-08-31T04:07:00.607Z,13.57
2018-08-31T04:09:29.056Z,13.50
2018-08-31T04:11:59.117Z,15.33
2018-08-31T04:14:27.643Z,15.43
2018-08-31T04:16:56.538Z,15.50
2018-08-31T04:19:25.212Z,14.40
2018-08-31T04:21:53.597Z,15.17
2018-08-31T04:24:22.522Z,15.50
2018-08-31T04:26:51.204Z,15.33
2018-08-31T04:46:40.098Z,15.47
2018-08-31T04:49:08.690Z,15.90
2018-08-31T04:51:38.135Z,15.67
2018-08-31T04:54:07.588Z,17.67
2018-08-31T04:56:36.135Z,17.37
2018-08-31T05:16:26.994Z,18.13
2018-08-31T05:18:55.389Z,18.93
2018-08-31T05:21:23.896Z,18.73
2018-08-31T05:23:52.618Z,19.40
2018-08-31T05:26:21.222Z,17.40
2018-08-31T05:28:50.549Z,19.13
2018-08-31T05:31:19.241Z,19.70
2018-08-31T05:33:47.911Z,19.80
2018-08-31T05:36:16.442Z,18.73
2018-08-31T05:56:07.635Z,19.43
2018-08-31T05:58:36.068Z,18.33
2018-08-31T06:01:04.546Z,20.17
2018-08-31T06:03:33.308Z,20.27
2018-08-31T06:06:02.395Z,19.33
2018-08-31T06:08:31.381Z,20.00
2018-08-31T06:11:00.099Z,19.93
2018-08-31T06:13:28.565Z,20.10
2018-08-31T06:15:56.966Z,20.03
2018-08-31T06:18:25.780Z,18.60
2018-08-31T06:20:54.463Z,19.83
2018-08-31T06:23:24.429Z,19.07
2018-08-31T06:25:54.412Z,19.90
2018-08-31T06:28:24.234Z,18.73
2018-08-31T06:30:52.815Z,19.47
2018-08-31T06:33:21.659Z,20.40
2018-08-31T06:35:50.600Z,20.83
2018-08-31T06:55:40.768Z,19.93
2018-08-31T06:58:09.192Z,19.50
2018-08-31T07:00:38.222Z,20.40
2018-08-31T07:03:06.714Z,20.27
2018-08-31T07:22:57.523Z,21.57
2018-08-31T07:25:26.133Z,20.97
2018-08-31T07:27:54.525Z,20.63
2018-08-31T07:47:45.339Z,19.73
2018-08-31T07:50:13.850Z,20.00
2018-08-31T07:52:42.372Z,21.83
2018-08-31T07:55:11.255Z,20.57
2018-08-31T07:57:39.681Z,21.23
2018-08-31T08:00:08.186Z,21.13
2018-08-31T08:02:36.938Z,21.17
2018-08-31T08:05:07.163Z,20.90
2018-08-31T08:07:35.620Z,21.07
2018-08-31T08:10:05.717Z,21.30
2018-08-31T08:12:34.144Z,20.10
2018-08-31T08:15:03.423Z,20.97
2018-08-31T08:17:31.931Z,21.80
2018-08-31T08:20:01.024Z,22.27
2018-08-31T08:22:30.976Z,23.00
2018-08-31T08:24:59.912Z,21.77
2018-08-31T08:27:28.395Z,21.80
2018-08-31T08:29:56.840Z,21.13
2018-08-31T08:49:47.537Z,22.03
2018-08-31T08:52:16.039Z,20.57
2018-08-31T09:12:06.766Z,20.10
2018-08-31T09:14:35.257Z,20.93
2018-08-31T09:17:03.871Z,21.97
2018-08-31T09:19:33.183Z,22.20
2018-08-31T09:22:02.441Z,21.80
2018-08-31T09:24:31.084Z,22.07
2018-08-31T09:27:00.557Z,22.60
2018-08-31T09:29:29.136Z,22.53
2018-08-31T09:31:57.605Z,22.63
2018-08-31T09:34:26.326Z,22.77
2018-08-31T09:36:55.470Z,22.13
2018-08-31T09:39:23.996Z,23.03
2018-08-31T09:41:54.050Z,22.97
2018-08-31T09:44:22.543Z,23.47
2018-08-31T09:46:51.039Z,23.07
2018-08-31T09:49:19.804Z,22.17
2018-08-31T10:09:10.341Z,23.40
2018-08-31T10:11:38.870Z,22.60
2018-08-31T10:14:08.025Z,23.40
2018-08-31T10:33:57.644Z,20.57
2018-08-31T10:36:26.233Z,22.07
2018-08-31T10:38:55.469Z,22.70
2018-08-31T10:41:24.309Z,22.53
2018-08-31T10:43:52.906Z,23.13
2018-08-31T10:46:21.510Z,22.93
2018-08-31T11:06:12.444Z,20.67
2018-08-31T11:08:40.948Z,21.57
2018-08-31T11:11:09.412Z,20.53
2018-08-31T11:13:38.400Z,21.47
2018-08-31T11:16:07.579Z,20.77
2018-08-31T11:18:36.054Z,21.77
2018-08-31T11:21:04.556Z,20.57
2018-08-31T11:40:54.243Z,21.60
2018-08-31T11:43:23.057Z,20.43
2018-08-31T11:45:52.092Z,21.63
2018-08-31T11:48:21.246Z,21.53
2018-08-31T11:50:49.915Z,22.47
2018-08-31T11:53:18.728Z,20.87
2018-08-31T11:55:48.052Z,19.07
2018-08-31T11:58:16.818Z,19.47
2018-08-31T12:00:46.107Z,20.10
2018-08-31T12:03:14.717Z,19.50
2018-08-31T12:05:43.378Z,19.77
2018-08-31T12:25:33.161Z,19.70
2018-08-31T12:28:02.323Z,20.93
2018-08-31T12:30:32.030Z,20.93
2018-08-31T12:33:00.514Z,21.00
2018-08-31T12:35:29.178Z,21.60
2018-08-31T12:55:19.946Z,23.20
2018-08-31T12:57:49.433Z,22.67
2018-08-31T13:00:18.251Z,24.13
2018-08-31T13:40:26.250Z,21.27
2018-08-31T14:00:33.298Z,21.07
2018-08-31T14:03:01.803Z,20.27
2018-08-31T14:22:51.152Z,23.97
2018-08-31T14:25:20.079Z,22.60
2018-08-31T14:27:49.492Z,22.87
2018-08-31T14:30:17.988Z,24.13
2018-08-31T14:32:46.842Z,27.07
2018-08-31T14:35:15.730Z,18.90
2018-08-31T14:37:44.294Z,20.07
2018-08-31T14:57:40.949Z,24.20
2018-08-31T15:00:10.292Z,20.60
2018-08-31T15:02:39.084Z,25.00
2018-08-31T15:05:08.623Z,25.60
2018-08-31T15:07:38.243Z,30.10
2018-08-31T15:10:06.948Z,22.80
2018-08-31T15:12:37.061Z,27.60
2018-08-31T15:15:05.859Z,22.10
2018-08-31T15:34:55.870Z,15.30
2018-08-31T15:37:26.682Z,15.03
2018-08-31T15:39:55.264Z,15.07
2018-08-31T15:59:46.271Z,7.97
2018-08-31T16:02:14.715Z,8.83
2018-08-31T16:04:44.048Z,8.93
2018-08-31T16:07:12.795Z,6.27
2018-08-31T16:27:02.275Z,5.63
2018-08-31T16:29:32.071Z,5.37
2018-08-31T16:32:00.543Z,6.17
2018-08-31T16:34:29.608Z,5.43
2018-08-31T16:36:58.908Z,5.53
2018-08-31T16:39:28.091Z,5.60
2018-08-31T16:41:56.557Z,5.80
2018-08-31T17:01:47.265Z,4.63
2018-08-31T17:04:16.404Z,4.70
2018-08-31T17:24:06.681Z,7.47
2018-08-31T17:26:40.463Z,4.63
2018-08-31T17:29:16.341Z,4.47
2018-08-31T17:31:50.175Z,3.70
2018-08-31T17:34:24.368Z,3.80
2018-08-31T17:36:58.556Z,4.67
2018-08-31T17:39:27.246Z,4.50
2018-08-31T17:41:56.364Z,3.97
2018-08-31T17:44:25.353Z,4.70
2018-08-31T17:46:54.058Z,4.97
2018-08-31T17:49:23.658Z,4.17
2018-08-31T17:51:52.365Z,4.47
2018-08-31T17:54:21.186Z,4.00
2018-08-31T17:56:50.467Z,3.43
2018-08-31T17:59:19.311Z,4.20
2018-08-31T18:01:48.509Z,4.13
2018-08-31T18:21:38.437Z,5.90
2018-08-31T18:24:08.101Z,5.80
2018-08-31T18:26:36.622Z,6.07
2018-08-31T18:29:05.126Z,6.33
2018-08-31T18:31:35.295Z,6.63
2018-08-31T18:34:04.762Z,6.80
2018-08-31T18:36:33.753Z,6.30
2018-08-31T18:39:02.378Z,7.17
2018-08-31T18:58:52.089Z,9.50
2018-08-31T19:01:21.617Z,9.77
2018-08-31T19:03:50.690Z,9.27
2018-08-31T19:06:19.269Z,9.27
2018-08-31T19:26:09.402Z,10.40
2018-08-31T19:28:37.901Z,9.73
2018-08-31T19:31:06.445Z,11.00
2018-08-31T19:50:57.563Z,12.33
2018-08-31T20:10:48.186Z,13.07
2018-08-31T20:13:17.716Z,13.07
2018-08-31T20:33:07.601Z,15.00
2018-08-31T20:35:36.304Z,14.93
2018-08-31T20:38:05.674Z,16.67
2018-08-31T20:40:34.174Z,15.03
2018-08-31T21:00:24.354Z,17.97
2018-08-31T21:02:53.125Z,18.03
2018-08-31T21:05:21.580Z,17.30
2018-08-31T21:07:51.546Z,17.87
2018-08-31T21:27:41.632Z,17.63
2018-08-31T21:30:10.855Z,17.63
2018-08-31T21:32:39.320Z,19.10
2018-08-31T21:35:07.860Z,20.60
2018-08-31T21:37:37.187Z,18.40
2018-08-31T21:40:05.719Z,17.67
2018-08-31T21:42:34.311Z,16.90
2018-08-31T21:45:03.029Z,19.03
2018-08-31T21:47:32.194Z,16.57
2018-08-31T21:50:01.369Z,16.70
2018-08-31T21:52:31.145Z,18.27
2018-08-31T21:54:59.705Z,16.50
2018-08-31T21:57:28.243Z,16.23
2018-08-31T21:59:56.924Z,16.70
2018-08-31T22:19:46.546Z,14.40
2018-08-31T22:39:36.936Z,13.57
2018-08-31T22:42:06.191Z,15.13
2018-08-31T22:44:36.509Z,14.40
2018-08-31T23:04:27.038Z,15.30
2018-08-31T23:06:55.681Z,15.17
2018-08-31T23:09:24.168Z,15.37
2018-08-31T23:11:52.801Z,15.33
2018-08-31T23:14:21.262Z,15.60
2018-08-31T23:16:50.462Z,15.50
2018-08-31T23:19:18.913Z,14.20
2018-08-31T23:21:47.538Z,14.53
2018-08-31T23:24:16.062Z,15.80
2018-08-31T23:26:44.966Z,16.17
2018-08-31T23:29:13.390Z,15.63
2018-08-31T23:31:41.854Z,16.10
2018-08-31T23:34:10.398Z,16.40
2018-08-31T23:36:38.857Z,16.30
2018-08-31T23:39:08.568Z,16.13
2018-08-31T23:58:58.525Z,17.50
